sensor_id;sensor_type;location;lat;lon;timestamp;pressure;altitude;pressure_sealevel;temperature;humidity
52983;BME280;48698;45.736;13.926;2023-04-12T00:03:33;97081.28;;;3.09;100.00
52983;BME280;48698;45.736;13.926;2023-04-12T00:08:37;97200.47;;;4.40;100.00
52983;BME280;48698;45.736;13.926;2023-04-12T00:13:40;97155.78;;;6.02;100.00
52983;BME280;48698;45.736;13.926;2023-04-12T00:18:45;96950.72;;;5.28;100.00
52983;BME280;48698;45.736;13.926;2023-04-12T00:23:49;96992.53;;;6.18;100.00
52983;BME280;48698;45.736;13.926;2023-04-12T00:28:52;96875.47;;;5.83;100.00
52983;BME280;48698;45.736;13.926;2023-04-12T00:33:57;97055.09;;;7.29;100.00
52983;BME280;48698;45.736;13.926;2023-04-12T00:39:00;97198.88;;;7.99;100.00
52983;BME280;48698;45.736;13.926;2023-04-12T00:44:03;97198.75;;;8.02;100.00
52983;BME280;48698;45.736;13.926;2023-04-12T00:49:06;97081.47;;;7.31;100.00
52983;BME280;48698;45.736;13.926;2023-04-12T00:54:09;97005.22;;;6.86;100.00
52983;BME280;48698;45.736;13.926;2023-04-12T00:59:12;96921.69;;;6.10;100.00
52983;BME280;48698;45.736;13.926;2023-04-12T01:04:15;96911.69;;;4.96;100.00
52983;BME280;48698;45.736;13.926;2023-04-12T01:09:28;97176.34;;;6.36;100.00
52983;BME280;48698;45.736;13.926;2023-04-12T01:19:53;97197.94;;;5.57;100.00
52983;BME280;48698;45.736;13.926;2023-04-12T01:25:34;97196.78;;;5.64;100.00
52983;BME280;48698;45.736;13.926;2023-04-12T01:30:41;97104.16;;;5.08;100.00
52983;BME280;48698;45.736;13.926;2023-04-12T01:35:45;97195.50;;;5.98;100.00
52983;BME280;48698;45.736;13.926;2023-04-12T01:40:49;97170.38;;;5.89;100.00
52983;BME280;48698;45.736;13.926;2023-04-12T01:45:52;96940.00;;;4.23;100.00
52983;BME280;48698;45.736;13.926;2023-04-12T01:51:05;97163.16;;;5.03;100.00
52983;BME280;48698;45.736;13.926;2023-04-12T01:56:09;97068.47;;;4.55;100.00
52983;BME280;48698;45.736;13.926;2023-04-12T02:01:14;97047.41;;;3.56;100.00
52983;BME280;48698;45.736;13.926;2023-04-12T02:06:18;97174.09;;;4.43;100.00
52983;BME280;48698;45.736;13.926;2023-04-12T02:11:24;97166.81;;;5.45;100.00
52983;BME280;48698;45.736;13.926;2023-04-12T02:16:27;96856.19;;;5.62;100.00
52983;BME280;48698;45.736;13.926;2023-04-12T02:21:40;97127.88;;;7.72;100.00
52983;BME280;48698;45.736;13.926;2023-04-12T02:26:44;97070.47;;;7.93;100.00
52983;BME280;48698;45.736;13.926;2023-04-12T02:31:47;97015.16;;;7.54;100.00
52983;BME280;48698;45.736;13.926;2023-04-12T02:36:49;97096.88;;;7.95;100.00
52983;BME280;48698;45.736;13.926;2023-04-12T02:41:59;96976.56;;;7.33;100.00
52983;BME280;48698;45.736;13.926;2023-04-12T02:47:03;97150.53;;;8.32;100.00
52983;BME280;48698;45.736;13.926;2023-04-12T02:52:06;97034.53;;;7.36;100.00
52983;BME280;48698;45.736;13.926;2023-04-12T02:57:08;96942.56;;;5.54;100.00
52983;BME280;48698;45.736;13.926;2023-04-12T03:02:13;96931.50;;;5.04;100.00
52983;BME280;48698;45.736;13.926;2023-04-12T03:07:17;97092.47;;;6.44;100.00
52983;BME280;48698;45.736;13.926;2023-04-12T03:12:31;97027.66;;;5.56;100.00
52983;BME280;48698;45.736;13.926;2023-04-12T03:17:33;96811.50;;;4.15;100.00
52983;BME280;48698;45.736;13.926;2023-04-12T03:22:36;97084.53;;;7.22;100.00
52983;BME280;48698;45.736;13.926;2023-04-12T03:27:39;97063.28;;;7.61;100.00
52983;BME280;48698;45.736;13.926;2023-04-12T03:32:43;97143.84;;;8.43;100.00
52983;BME280;48698;45.736;13.926;2023-04-12T03:37:46;96967.28;;;7.43;100.00
52983;BME280;48698;45.736;13.926;2023-04-12T03:42:48;96814.06;;;6.92;100.00
52983;BME280;48698;45.736;13.926;2023-04-12T03:47:51;97036.75;;;8.32;100.00
52983;BME280;48698;45.736;13.926;2023-04-12T03:52:54;96854.94;;;7.19;100.00
52983;BME280;48698;45.736;13.926;2023-04-12T03:57:57;97036.13;;;8.27;100.00
52983;BME280;48698;45.736;13.926;2023-04-12T04:03:00;96950.66;;;7.93;100.00
52983;BME280;48698;45.736;13.926;2023-04-12T04:08:07;97050.81;;;8.67;100.00
52983;BME280;48698;45.736;13.926;2023-04-12T04:13:20;96777.34;;;7.04;100.00
52983;BME280;48698;45.736;13.926;2023-04-12T04:18:27;96986.09;;;8.23;100.00
52983;BME280;48698;45.736;13.926;2023-04-12T04:23:31;97062.66;;;8.60;100.00
52983;BME280;48698;45.736;13.926;2023-04-12T04:28:41;97008.03;;;8.42;100.00
52983;BME280;48698;45.736;13.926;2023-04-12T04:33:46;97068.09;;;8.74;100.00
52983;BME280;48698;45.736;13.926;2023-04-12T04:38:49;97093.88;;;9.04;100.00
52983;BME280;48698;45.736;13.926;2023-04-12T04:43:52;96818.88;;;7.52;100.00
52983;BME280;48698;45.736;13.926;2023-04-12T04:48:56;97030.22;;;9.21;100.00
52983;BME280;48698;45.736;13.926;2023-04-12T04:54:02;97004.75;;;9.03;100.00
52983;BME280;48698;45.736;13.926;2023-04-12T04:59:04;96986.63;;;8.47;100.00
52983;BME280;48698;45.736;13.926;2023-04-12T05:04:07;96913.19;;;8.02;100.00
52983;BME280;48698;45.736;13.926;2023-04-12T05:09:10;97007.41;;;8.54;100.00
52983;BME280;48698;45.736;13.926;2023-04-12T05:14:13;97032.28;;;8.67;100.00
52983;BME280;48698;45.736;13.926;2023-04-12T05:19:16;97088.81;;;9.15;100.00
52983;BME280;48698;45.736;13.926;2023-04-12T05:24:29;97092.78;;;9.23;100.00
52983;BME280;48698;45.736;13.926;2023-04-12T05:29:32;97088.59;;;9.35;100.00
52983;BME280;48698;45.736;13.926;2023-04-12T05:34:34;97068.88;;;9.56;100.00
52983;BME280;48698;45.736;13.926;2023-04-12T05:39:38;96845.66;;;8.27;100.00
52983;BME280;48698;45.736;13.926;2023-04-12T05:44:42;96894.03;;;8.62;100.00
52983;BME280;48698;45.736;13.926;2023-04-12T05:49:49;96932.72;;;8.80;100.00
52983;BME280;48698;45.736;13.926;2023-04-12T05:54:52;97091.34;;;9.80;100.00
52983;BME280;48698;45.736;13.926;2023-04-12T05:59:55;97006.09;;;9.57;100.00
52983;BME280;48698;45.736;13.926;2023-04-12T06:04:58;96949.13;;;9.34;100.00
52983;BME280;48698;45.736;13.926;2023-04-12T06:10:02;96791.25;;;8.55;100.00
52983;BME280;48698;45.736;13.926;2023-04-12T06:15:05;96973.56;;;9.69;100.00
52983;BME280;48698;45.736;13.926;2023-04-12T06:20:08;96970.47;;;9.76;100.00
52983;BME280;48698;45.736;13.926;2023-04-12T06:25:20;97007.78;;;10.19;100.00
52983;BME280;48698;45.736;13.926;2023-04-12T06:30:24;96726.47;;;8.76;100.00
52983;BME280;48698;45.736;13.926;2023-04-12T06:35:27;96883.94;;;9.90;100.00
52983;BME280;48698;45.736;13.926;2023-04-12T06:40:31;97091.31;;;11.14;100.00
52983;BME280;48698;45.736;13.926;2023-04-12T06:45:45;97104.06;;;11.09;100.00
52983;BME280;48698;45.736;13.926;2023-04-12T06:50:48;96904.03;;;9.94;100.00
52983;BME280;48698;45.736;13.926;2023-04-12T06:55:51;96963.81;;;10.29;100.00
52983;BME280;48698;45.736;13.926;2023-04-12T07:01:08;96998.16;;;10.46;100.00
52983;BME280;48698;45.736;13.926;2023-04-12T07:06:26;96973.66;;;10.41;100.00
52983;BME280;48698;45.736;13.926;2023-04-12T07:11:29;96836.81;;;9.51;100.00
52983;BME280;48698;45.736;13.926;2023-04-12T07:16:33;96995.97;;;10.53;100.00
52983;BME280;48698;45.736;13.926;2023-04-12T07:21:45;97033.72;;;10.58;100.00
52983;BME280;48698;45.736;13.926;2023-04-12T07:26:48;97075.38;;;10.85;100.00
52983;BME280;48698;45.736;13.926;2023-04-12T07:31:51;97025.25;;;10.37;100.00
52983;BME280;48698;45.736;13.926;2023-04-12T07:36:55;97079.06;;;10.69;100.00
52983;BME280;48698;45.736;13.926;2023-04-12T07:41:59;96962.00;;;10.15;100.00
52983;BME280;48698;45.736;13.926;2023-04-12T07:47:02;97050.16;;;10.93;100.00
52983;BME280;48698;45.736;13.926;2023-04-12T07:52:06;97007.06;;;11.02;100.00
52983;BME280;48698;45.736;13.926;2023-04-12T07:57:09;96963.56;;;10.76;100.00
52983;BME280;48698;45.736;13.926;2023-04-12T08:02:13;97013.59;;;11.65;100.00
52983;BME280;48698;45.736;13.926;2023-04-12T08:07:16;96788.47;;;10.32;100.00
52983;BME280;48698;45.736;13.926;2023-04-12T08:12:18;96939.50;;;11.06;100.00
52983;BME280;48698;45.736;13.926;2023-04-12T08:17:22;96885.59;;;10.77;100.00
52983;BME280;48698;45.736;13.926;2023-04-12T08:22:25;96956.53;;;11.30;100.00
52983;BME280;48698;45.736;13.926;2023-04-12T08:27:28;96753.88;;;10.05;100.00
52983;BME280;48698;45.736;13.926;2023-04-12T08:32:31;96750.78;;;9.84;100.00
52983;BME280;48698;45.736;13.926;2023-04-12T08:37:34;96960.19;;;11.01;100.00
52983;BME280;48698;45.736;13.926;2023-04-12T08:42:37;96970.16;;;10.97;100.00
52983;BME280;48698;45.736;13.926;2023-04-12T08:47:42;97007.53;;;11.08;100.00
52983;BME280;48698;45.736;13.926;2023-04-12T08:52:48;96966.88;;;10.94;100.00
52983;BME280;48698;45.736;13.926;2023-04-12T08:57:53;97072.28;;;11.62;100.00
52983;BME280;48698;45.736;13.926;2023-04-12T09:02:58;96960.50;;;10.96;100.00
52983;BME280;48698;45.736;13.926;2023-04-12T09:08:01;97045.25;;;11.56;100.00
52983;BME280;48698;45.736;13.926;2023-04-12T09:13:05;96945.13;;;11.28;100.00
52983;BME280;48698;45.736;13.926;2023-04-12T09:18:10;97004.34;;;11.98;100.00
52983;BME280;48698;45.736;13.926;2023-04-12T09:23:20;97074.00;;;12.56;100.00
52983;BME280;48698;45.736;13.926;2023-04-12T09:28:24;97046.94;;;12.37;100.00
52983;BME280;48698;45.736;13.926;2023-04-12T09:33:36;96992.72;;;12.51;100.00
52983;BME280;48698;45.736;13.926;2023-04-12T09:38:39;97072.47;;;13.17;100.00
52983;BME280;48698;45.736;13.926;2023-04-12T09:43:44;96974.50;;;12.95;95.68
52983;BME280;48698;45.736;13.926;2023-04-12T09:48:48;97001.91;;;13.22;95.62
52983;BME280;48698;45.736;13.926;2023-04-12T09:53:54;97040.97;;;13.83;89.67
52983;BME280;48698;45.736;13.926;2023-04-12T09:59:03;96935.00;;;13.49;87.12
52983;BME280;48698;45.736;13.926;2023-04-12T10:04:06;96975.97;;;14.65;85.75
52983;BME280;48698;45.736;13.926;2023-04-12T10:09:11;96701.72;;;13.31;82.67
52983;BME280;48698;45.736;13.926;2023-04-12T10:14:16;96736.38;;;14.21;78.63
52983;BME280;48698;45.736;13.926;2023-04-12T10:19:21;96882.06;;;15.89;73.49
52983;BME280;48698;45.736;13.926;2023-04-12T10:24:27;96737.13;;;14.34;72.84
52983;BME280;48698;45.736;13.926;2023-04-12T10:29:31;97014.19;;;16.31;72.61
52983;BME280;48698;45.736;13.926;2023-04-12T10:34:38;96961.81;;;15.74;69.18
52983;BME280;48698;45.736;13.926;2023-04-12T10:39:50;96824.47;;;14.32;68.17
52983;BME280;48698;45.736;13.926;2023-04-12T10:50:26;96953.09;;;15.39;71.88
52983;BME280;48698;45.736;13.926;2023-04-12T10:55:31;96995.09;;;15.49;69.96
52983;BME280;48698;45.736;13.926;2023-04-12T11:06:07;96924.66;;;15.49;72.91
52983;BME280;48698;45.736;13.926;2023-04-12T11:11:33;96893.53;;;15.48;72.92
52983;BME280;48698;45.736;13.926;2023-04-12T11:22:17;96957.38;;;15.84;72.78
52983;BME280;48698;45.736;13.926;2023-04-12T11:27:22;96955.72;;;15.83;74.88
52983;BME280;48698;45.736;13.926;2023-04-12T11:32:28;96954.28;;;15.68;72.99
52983;BME280;48698;45.736;13.926;2023-04-12T11:37:33;96749.13;;;14.51;73.11
52983;BME280;48698;45.736;13.926;2023-04-12T11:42:40;96842.44;;;15.51;74.19
52983;BME280;48698;45.736;13.926;2023-04-12T11:47:44;96853.44;;;15.26;73.22
52983;BME280;48698;45.736;13.926;2023-04-12T11:52:48;96802.97;;;15.21;73.27
52983;BME280;48698;45.736;13.926;2023-04-12T11:57:52;96904.25;;;15.37;73.77
52983;BME280;48698;45.736;13.926;2023-04-12T12:02:57;96659.22;;;13.85;74.70
52983;BME280;48698;45.736;13.926;2023-04-12T12:08:09;96899.19;;;14.78;73.42
52983;BME280;48698;45.736;13.926;2023-04-12T12:13:13;96934.56;;;15.69;77.00
52983;BME280;48698;45.736;13.926;2023-04-12T12:18:16;96710.03;;;14.39;75.27
52983;BME280;48698;45.736;13.926;2023-04-12T12:23:32;96927.13;;;15.19;76.52
52983;BME280;48698;45.736;13.926;2023-04-12T12:28:36;96907.38;;;15.42;77.58
52983;BME280;48698;45.736;13.926;2023-04-12T12:33:39;96617.97;;;13.56;77.83
52983;BME280;48698;45.736;13.926;2023-04-12T12:38:51;96901.88;;;15.55;76.53
52983;BME280;48698;45.736;13.926;2023-04-12T12:43:54;96782.03;;;15.37;74.11
52983;BME280;48698;45.736;13.926;2023-04-12T12:48:58;96805.63;;;15.32;74.28
52983;BME280;48698;45.736;13.926;2023-04-12T12:54:00;96630.38;;;14.44;73.42
52983;BME280;48698;45.736;13.926;2023-04-12T12:59:03;96751.38;;;15.83;70.80
52983;BME280;48698;45.736;13.926;2023-04-12T13:04:06;96610.63;;;14.67;75.60
52983;BME280;48698;45.736;13.926;2023-04-12T13:09:09;96597.69;;;14.72;73.85
52983;BME280;48698;45.736;13.926;2023-04-12T13:14:22;96702.19;;;15.01;74.46
52983;BME280;48698;45.736;13.926;2023-04-12T13:19:24;96786.47;;;14.73;74.74
52983;BME280;48698;45.736;13.926;2023-04-12T13:24:27;96807.41;;;15.11;78.08
52983;BME280;48698;45.736;13.926;2023-04-12T13:29:31;96593.50;;;13.62;75.29
52983;BME280;48698;45.736;13.926;2023-04-12T13:34:35;96698.16;;;13.98;75.28
52983;BME280;48698;45.736;13.926;2023-04-12T13:39:38;96853.00;;;15.10;77.95
52983;BME280;48698;45.736;13.926;2023-04-12T13:44:51;96729.81;;;13.81;74.90
52983;BME280;48698;45.736;13.926;2023-04-12T13:49:55;96752.28;;;14.34;77.18
52983;BME280;48698;45.736;13.926;2023-04-12T13:54:58;96733.00;;;14.41;78.29
52983;BME280;48698;45.736;13.926;2023-04-12T14:00:01;96792.25;;;15.00;77.28
52983;BME280;48698;45.736;13.926;2023-04-12T14:05:04;96756.13;;;14.52;75.88
52983;BME280;48698;45.736;13.926;2023-04-12T14:10:08;96731.38;;;14.61;78.18
52983;BME280;48698;45.736;13.926;2023-04-12T14:15:11;96666.34;;;13.95;78.21
52983;BME280;48698;45.736;13.926;2023-04-12T14:20:14;96525.09;;;13.50;77.50
52983;BME280;48698;45.736;13.926;2023-04-12T14:25:20;96741.19;;;14.61;77.23
52983;BME280;48698;45.736;13.926;2023-04-12T14:30:23;96527.41;;;13.54;78.49
52983;BME280;48698;45.736;13.926;2023-04-12T14:35:26;96767.94;;;15.04;79.09
52983;BME280;48698;45.736;13.926;2023-04-12T14:40:29;96661.63;;;14.10;81.23
52983;BME280;48698;45.736;13.926;2023-04-12T14:45:35;96821.59;;;14.58;79.22
52983;BME280;48698;45.736;13.926;2023-04-12T14:50:40;96797.56;;;14.46;82.33
52983;BME280;48698;45.736;13.926;2023-04-12T14:55:43;96795.97;;;14.66;79.53
52983;BME280;48698;45.736;13.926;2023-04-12T15:00:46;96804.84;;;14.56;81.70
52983;BME280;48698;45.736;13.926;2023-04-12T15:05:50;96497.94;;;12.78;80.36
52983;BME280;48698;45.736;13.926;2023-04-12T15:10:54;96722.03;;;14.22;81.45
52983;BME280;48698;45.736;13.926;2023-04-12T15:15:57;96752.50;;;14.09;81.16
52983;BME280;48698;45.736;13.926;2023-04-12T15:21:00;96665.09;;;13.22;82.07
52983;BME280;48698;45.736;13.926;2023-04-12T15:26:06;96627.16;;;12.72;85.44
52983;BME280;48698;45.736;13.926;2023-04-12T15:31:10;96810.47;;;13.38;86.13
52983;BME280;48698;45.736;13.926;2023-04-12T15:36:13;96735.94;;;13.13;88.35
52983;BME280;48698;45.736;13.926;2023-04-12T15:41:18;96672.47;;;12.60;86.52
52983;BME280;48698;45.736;13.926;2023-04-12T15:46:21;96756.41;;;13.13;87.79
52983;BME280;48698;45.736;13.926;2023-04-12T15:51:23;96442.22;;;11.48;88.07
52983;BME280;48698;45.736;13.926;2023-04-12T15:56:27;96633.22;;;12.51;88.99
52983;BME280;48698;45.736;13.926;2023-04-12T16:01:31;96645.78;;;12.72;91.44
52983;BME280;48698;45.736;13.926;2023-04-12T16:06:34;96763.09;;;13.42;93.63
52983;BME280;48698;45.736;13.926;2023-04-12T16:11:37;96801.88;;;13.46;91.10
52983;BME280;48698;45.736;13.926;2023-04-12T16:16:39;96792.53;;;13.40;93.40
52983;BME280;48698;45.736;13.926;2023-04-12T16:21:42;96722.75;;;13.12;97.02
52983;BME280;48698;45.736;13.926;2023-04-12T16:26:46;96781.25;;;13.37;96.13
52983;BME280;48698;45.736;13.926;2023-04-12T16:31:49;96774.97;;;13.49;93.50
52983;BME280;48698;45.736;13.926;2023-04-12T16:37:00;96545.00;;;12.20;91.25
52983;BME280;48698;45.736;13.926;2023-04-12T16:42:04;96593.97;;;12.76;89.30
52983;BME280;48698;45.736;13.926;2023-04-12T16:47:08;96757.84;;;13.75;88.95
52983;BME280;48698;45.736;13.926;2023-04-12T16:52:12;96750.03;;;13.61;88.11
52983;BME280;48698;45.736;13.926;2023-04-12T16:57:14;96664.00;;;13.24;89.74
52983;BME280;48698;45.736;13.926;2023-04-12T17:02:17;96611.34;;;13.04;88.63
52983;BME280;48698;45.736;13.926;2023-04-12T17:07:20;96727.19;;;13.46;91.58
52983;BME280;48698;45.736;13.926;2023-04-12T17:12:23;96730.84;;;13.45;90.97
52983;BME280;48698;45.736;13.926;2023-04-12T17:17:26;96584.75;;;12.11;89.64
52983;BME280;48698;45.736;13.926;2023-04-12T17:22:29;96449.50;;;11.57;90.60
52983;BME280;48698;45.736;13.926;2023-04-12T17:27:32;96373.47;;;11.31;88.73
52983;BME280;48698;45.736;13.926;2023-04-12T17:32:38;96588.81;;;12.51;91.19
52983;BME280;48698;45.736;13.926;2023-04-12T17:37:42;96729.47;;;13.39;92.18
52983;BME280;48698;45.736;13.926;2023-04-12T17:42:44;96733.66;;;12.96;91.97
52983;BME280;48698;45.736;13.926;2023-04-12T17:47:47;96745.13;;;12.62;100.00
52983;BME280;48698;45.736;13.926;2023-04-12T17:52:50;96621.59;;;11.55;100.00
52983;BME280;48698;45.736;13.926;2023-04-12T17:57:53;96681.81;;;12.18;100.00
52983;BME280;48698;45.736;13.926;2023-04-12T18:02:57;96492.53;;;11.02;100.00
52983;BME280;48698;45.736;13.926;2023-04-12T18:08:00;96740.00;;;11.73;100.00
52983;BME280;48698;45.736;13.926;2023-04-12T18:13:03;96591.44;;;11.06;100.00
52983;BME280;48698;45.736;13.926;2023-04-12T18:18:06;96743.16;;;12.04;100.00
52983;BME280;48698;45.736;13.926;2023-04-12T18:23:09;96631.94;;;11.09;100.00
52983;BME280;48698;45.736;13.926;2023-04-12T18:28:12;96667.44;;;10.56;100.00
52983;BME280;48698;45.736;13.926;2023-04-12T18:33:14;96591.47;;;10.41;100.00
52983;BME280;48698;45.736;13.926;2023-04-12T18:38:18;96513.91;;;10.11;100.00
52983;BME280;48698;45.736;13.926;2023-04-12T18:43:20;96554.94;;;9.78;100.00
52983;BME280;48698;45.736;13.926;2023-04-12T18:48:24;96615.47;;;10.13;100.00
52983;BME280;48698;45.736;13.926;2023-04-12T18:53:28;96676.72;;;9.81;100.00
52983;BME280;48698;45.736;13.926;2023-04-12T18:58:31;96659.50;;;9.74;100.00
52983;BME280;48698;45.736;13.926;2023-04-12T19:03:54;96740.84;;;10.16;100.00
52983;BME280;48698;45.736;13.926;2023-04-12T19:08:58;96738.09;;;9.90;100.00
52983;BME280;48698;45.736;13.926;2023-04-12T19:14:00;96666.34;;;9.36;100.00
52983;BME280;48698;45.736;13.926;2023-04-12T19:19:03;96684.69;;;9.39;100.00
52983;BME280;48698;45.736;13.926;2023-04-12T19:24:06;96580.25;;;8.28;100.00
52983;BME280;48698;45.736;13.926;2023-04-12T19:29:09;96657.19;;;9.27;100.00
52983;BME280;48698;45.736;13.926;2023-04-12T19:34:12;96623.66;;;8.84;100.00
52983;BME280;48698;45.736;13.926;2023-04-12T19:39:18;96711.69;;;8.88;100.00
52983;BME280;48698;45.736;13.926;2023-04-12T19:44:21;96697.97;;;8.51;100.00
52983;BME280;48698;45.736;13.926;2023-04-12T19:49:24;96577.94;;;7.77;100.00
52983;BME280;48698;45.736;13.926;2023-04-12T19:54:27;96533.03;;;7.30;100.00
52983;BME280;48698;45.736;13.926;2023-04-12T19:59:30;96591.13;;;7.93;100.00
52983;BME280;48698;45.736;13.926;2023-04-12T20:04:42;96442.06;;;7.20;100.00
52983;BME280;48698;45.736;13.926;2023-04-12T20:09:50;96647.38;;;8.42;100.00
52983;BME280;48698;45.736;13.926;2023-04-12T20:14:53;96584.84;;;7.48;100.00
52983;BME280;48698;45.736;13.926;2023-04-12T20:19:56;96726.72;;;8.57;100.00
52983;BME280;48698;45.736;13.926;2023-04-12T20:24:59;96662.91;;;8.16;100.00
52983;BME280;48698;45.736;13.926;2023-04-12T20:30:06;96527.84;;;7.44;100.00
52983;BME280;48698;45.736;13.926;2023-04-12T20:35:10;96713.84;;;8.81;100.00
52983;BME280;48698;45.736;13.926;2023-04-12T20:40:16;96659.59;;;9.02;100.00
52983;BME280;48698;45.736;13.926;2023-04-12T20:45:19;96667.88;;;8.52;100.00
52983;BME280;48698;45.736;13.926;2023-04-12T20:50:23;96662.09;;;8.75;100.00
52983;BME280;48698;45.736;13.926;2023-04-12T20:55:26;96332.88;;;6.91;100.00
52983;BME280;48698;45.736;13.926;2023-04-12T21:00:34;96690.69;;;8.85;100.00
52983;BME280;48698;45.736;13.926;2023-04-12T21:05:44;96687.00;;;8.87;100.00
52983;BME280;48698;45.736;13.926;2023-04-12T21:10:47;96674.44;;;8.91;100.00
52983;BME280;48698;45.736;13.926;2023-04-12T21:15:51;96551.28;;;8.41;100.00
52983;BME280;48698;45.736;13.926;2023-04-12T21:20:57;96646.09;;;9.07;100.00
52983;BME280;48698;45.736;13.926;2023-04-12T21:26:00;96288.38;;;7.15;100.00
52983;BME280;48698;45.736;13.926;2023-04-12T21:31:04;96501.41;;;8.77;100.00
52983;BME280;48698;45.736;13.926;2023-04-12T21:36:15;96636.59;;;8.89;100.00
52983;BME280;48698;45.736;13.926;2023-04-12T21:41:24;96566.44;;;8.67;100.00
52983;BME280;48698;45.736;13.926;2023-04-12T21:46:30;96633.22;;;9.15;100.00
52983;BME280;48698;45.736;13.926;2023-04-12T21:51:33;96592.53;;;8.29;100.00
52983;BME280;48698;45.736;13.926;2023-04-12T21:56:36;96550.25;;;8.44;100.00
52983;BME280;48698;45.736;13.926;2023-04-12T22:01:48;96356.34;;;7.41;100.00
52983;BME280;48698;45.736;13.926;2023-04-12T22:06:51;96399.97;;;7.33;100.00
52983;BME280;48698;45.736;13.926;2023-04-12T22:12:04;96529.94;;;8.72;100.00
52983;BME280;48698;45.736;13.926;2023-04-12T22:17:08;96573.06;;;9.03;100.00
52983;BME280;48698;45.736;13.926;2023-04-12T22:22:11;96555.66;;;9.13;100.00
52983;BME280;48698;45.736;13.926;2023-04-12T22:27:15;96592.56;;;8.88;100.00
52983;BME280;48698;45.736;13.926;2023-04-12T22:32:18;96636.06;;;9.26;100.00
52983;BME280;48698;45.736;13.926;2023-04-12T22:37:21;96472.28;;;8.63;100.00
52983;BME280;48698;45.736;13.926;2023-04-12T22:42:24;96590.25;;;9.38;100.00
52983;BME280;48698;45.736;13.926;2023-04-12T22:47:28;96438.38;;;7.98;100.00
52983;BME280;48698;45.736;13.926;2023-04-12T22:52:31;96635.31;;;9.24;100.00
52983;BME280;48698;45.736;13.926;2023-04-12T22:57:34;96422.22;;;7.88;100.00
52983;BME280;48698;45.736;13.926;2023-04-12T23:02:37;96486.47;;;8.48;100.00
52983;BME280;48698;45.736;13.926;2023-04-12T23:07:40;96511.59;;;8.55;100.00
52983;BME280;48698;45.736;13.926;2023-04-12T23:12:45;96395.16;;;7.55;100.00
52983;BME280;48698;45.736;13.926;2023-04-12T23:17:50;96385.06;;;7.02;100.00
52983;BME280;48698;45.736;13.926;2023-04-12T23:22:53;96596.34;;;7.78;100.00
52983;BME280;48698;45.736;13.926;2023-04-12T23:27:59;96559.97;;;7.37;100.00
52983;BME280;48698;45.736;13.926;2023-04-12T23:33:06;96610.75;;;7.89;100.00
52983;BME280;48698;45.736;13.926;2023-04-12T23:38:12;96618.44;;;7.77;100.00
52983;BME280;48698;45.736;13.926;2023-04-12T23:43:24;96614.63;;;8.13;100.00
52983;BME280;48698;45.736;13.926;2023-04-12T23:48:27;96565.69;;;8.06;100.00
52983;BME280;48698;45.736;13.926;2023-04-12T23:53:30;96634.75;;;8.15;100.00
52983;BME280;48698;45.736;13.926;2023-04-12T23:58:33;96599.19;;;7.75;100.00
